sensor_id;sensor_type;location;lat;lon;timestamp;temperature;humidity
33699;DHT22;20032;52.436;13.312;2022-07-25T00:00:11;21.20;92.90
33699;DHT22;20032;52.436;13.312;2022-07-25T00:02:37;21.20;92.50
33699;DHT22;20032;52.436;13.312;2022-07-25T00:05:03;21.20;93.00
33699;DHT22;20032;52.436;13.312;2022-07-25T00:07:28;21.20;93.20
33699;DHT22;20032;52.436;13.312;2022-07-25T00:09:54;21.00;93.20
33699;DHT22;20032;52.436;13.312;2022-07-25T00:12:20;21.00;92.70
33699;DHT22;20032;52.436;13.312;2022-07-25T00:14:46;21.00;92.70
33699;DHT22;20032;52.436;13.312;2022-07-25T00:17:12;21.00;93.10
33699;DHT22;20032;52.436;13.312;2022-07-25T00:19:38;21.00;92.70
33699;DHT22;20032;52.436;13.312;2022-07-25T00:22:03;21.00;92.90
33699;DHT22;20032;52.436;13.312;2022-07-25T00:24:29;20.90;93.20
33699;DHT22;20032;52.436;13.312;2022-07-25T00:26:54;20.90;92.20
33699;DHT22;20032;52.436;13.312;2022-07-25T00:29:20;21.00;92.40
33699;DHT22;20032;52.436;13.312;2022-07-25T00:31:46;21.00;93.00
33699;DHT22;20032;52.436;13.312;2022-07-25T00:34:11;20.90;93.20
33699;DHT22;20032;52.436;13.312;2022-07-25T00:36:37;20.80;93.30
33699;DHT22;20032;52.436;13.312;2022-07-25T00:39:03;20.80;93.40
33699;DHT22;20032;52.436;13.312;2022-07-25T00:41:28;20.70;93.70
33699;DHT22;20032;52.436;13.312;2022-07-25T00:43:54;20.60;93.50
33699;DHT22;20032;52.436;13.312;2022-07-25T00:46:19;20.60;93.60
33699;DHT22;20032;52.436;13.312;2022-07-25T00:48:45;20.70;93.60
33699;DHT22;20032;52.436;13.312;2022-07-25T00:51:10;20.80;93.20
33699;DHT22;20032;52.436;13.312;2022-07-25T00:53:37;20.70;93.80
33699;DHT22;20032;52.436;13.312;2022-07-25T00:56:04;20.70;93.60
33699;DHT22;20032;52.436;13.312;2022-07-25T00:58:29;20.60;92.80
33699;DHT22;20032;52.436;13.312;2022-07-25T01:00:55;20.70;92.80
33699;DHT22;20032;52.436;13.312;2022-07-25T01:03:20;20.80;92.00
33699;DHT22;20032;52.436;13.312;2022-07-25T01:05:46;20.80;93.10
33699;DHT22;20032;52.436;13.312;2022-07-25T01:08:12;20.90;90.80
33699;DHT22;20032;52.436;13.312;2022-07-25T01:10:38;21.00;90.50
33699;DHT22;20032;52.436;13.312;2022-07-25T01:13:04;21.10;90.50
33699;DHT22;20032;52.436;13.312;2022-07-25T01:15:30;21.10;90.30
33699;DHT22;20032;52.436;13.312;2022-07-25T01:17:55;21.10;90.10
33699;DHT22;20032;52.436;13.312;2022-07-25T01:20:24;21.10;90.20
33699;DHT22;20032;52.436;13.312;2022-07-25T01:22:51;21.10;90.20
33699;DHT22;20032;52.436;13.312;2022-07-25T01:25:16;21.10;90.30
33699;DHT22;20032;52.436;13.312;2022-07-25T01:27:44;21.10;90.20
33699;DHT22;20032;52.436;13.312;2022-07-25T01:30:12;21.00;90.60
33699;DHT22;20032;52.436;13.312;2022-07-25T01:32:38;21.00;90.40
33699;DHT22;20032;52.436;13.312;2022-07-25T01:35:06;20.90;90.60
33699;DHT22;20032;52.436;13.312;2022-07-25T01:37:31;20.90;90.50
33699;DHT22;20032;52.436;13.312;2022-07-25T01:39:57;20.90;90.80
33699;DHT22;20032;52.436;13.312;2022-07-25T01:42:22;20.80;90.80
33699;DHT22;20032;52.436;13.312;2022-07-25T01:44:48;20.80;90.90
33699;DHT22;20032;52.436;13.312;2022-07-25T01:47:14;20.70;90.90
33699;DHT22;20032;52.436;13.312;2022-07-25T01:49:41;20.70;91.00
33699;DHT22;20032;52.436;13.312;2022-07-25T01:52:07;20.80;91.30
33699;DHT22;20032;52.436;13.312;2022-07-25T01:54:32;20.80;91.10
33699;DHT22;20032;52.436;13.312;2022-07-25T01:56:58;20.80;91.20
33699;DHT22;20032;52.436;13.312;2022-07-25T01:59:23;20.70;91.20
33699;DHT22;20032;52.436;13.312;2022-07-25T02:01:49;20.70;91.40
33699;DHT22;20032;52.436;13.312;2022-07-25T02:04:14;20.70;91.10
33699;DHT22;20032;52.436;13.312;2022-07-25T02:06:40;20.70;91.10
33699;DHT22;20032;52.436;13.312;2022-07-25T02:09:06;20.60;91.40
33699;DHT22;20032;52.436;13.312;2022-07-25T02:11:32;20.60;91.50
33699;DHT22;20032;52.436;13.312;2022-07-25T02:13:58;20.50;91.80
33699;DHT22;20032;52.436;13.312;2022-07-25T02:16:23;20.40;92.40
33699;DHT22;20032;52.436;13.312;2022-07-25T02:18:49;20.40;92.50
33699;DHT22;20032;52.436;13.312;2022-07-25T02:21:14;20.40;92.20
33699;DHT22;20032;52.436;13.312;2022-07-25T02:23:40;20.30;92.30
33699;DHT22;20032;52.436;13.312;2022-07-25T02:26:06;20.30;92.50
33699;DHT22;20032;52.436;13.312;2022-07-25T02:28:31;20.30;92.30
33699;DHT22;20032;52.436;13.312;2022-07-25T02:30:57;20.40;92.10
33699;DHT22;20032;52.436;13.312;2022-07-25T02:33:22;20.30;92.40
33699;DHT22;20032;52.436;13.312;2022-07-25T02:35:48;20.20;92.70
33699;DHT22;20032;52.436;13.312;2022-07-25T02:38:14;20.20;92.60
33699;DHT22;20032;52.436;13.312;2022-07-25T02:40:46;20.00;92.90
33699;DHT22;20032;52.436;13.312;2022-07-25T02:43:11;20.00;93.00
33699;DHT22;20032;52.436;13.312;2022-07-25T02:45:37;20.00;93.10
33699;DHT22;20032;52.436;13.312;2022-07-25T02:48:03;20.10;92.70
33699;DHT22;20032;52.436;13.312;2022-07-25T02:50:29;20.10;93.20
33699;DHT22;20032;52.436;13.312;2022-07-25T02:52:54;20.00;92.90
33699;DHT22;20032;52.436;13.312;2022-07-25T02:55:20;20.00;93.00
33699;DHT22;20032;52.436;13.312;2022-07-25T02:57:45;20.00;93.70
33699;DHT22;20032;52.436;13.312;2022-07-25T03:00:12;19.90;93.70
33699;DHT22;20032;52.436;13.312;2022-07-25T03:02:38;19.80;93.60
33699;DHT22;20032;52.436;13.312;2022-07-25T03:05:06;19.80;93.30
33699;DHT22;20032;52.436;13.312;2022-07-25T03:07:32;19.70;93.50
33699;DHT22;20032;52.436;13.312;2022-07-25T03:09:58;19.80;93.50
33699;DHT22;20032;52.436;13.312;2022-07-25T03:12:23;19.80;93.60
33699;DHT22;20032;52.436;13.312;2022-07-25T03:14:49;19.90;93.20
33699;DHT22;20032;52.436;13.312;2022-07-25T03:17:14;19.80;93.10
33699;DHT22;20032;52.436;13.312;2022-07-25T03:19:40;19.80;92.90
33699;DHT22;20032;52.436;13.312;2022-07-25T03:22:05;19.80;93.20
33699;DHT22;20032;52.436;13.312;2022-07-25T03:24:31;19.80;93.60
33699;DHT22;20032;52.436;13.312;2022-07-25T03:26:56;19.80;93.00
33699;DHT22;20032;52.436;13.312;2022-07-25T03:29:22;19.80;93.10
33699;DHT22;20032;52.436;13.312;2022-07-25T03:31:47;19.70;93.10
33699;DHT22;20032;52.436;13.312;2022-07-25T03:34:13;19.80;92.90
33699;DHT22;20032;52.436;13.312;2022-07-25T03:36:38;19.80;93.00
33699;DHT22;20032;52.436;13.312;2022-07-25T03:39:04;19.80;92.80
33699;DHT22;20032;52.436;13.312;2022-07-25T03:41:29;19.80;92.90
33699;DHT22;20032;52.436;13.312;2022-07-25T03:43:54;19.70;93.10
33699;DHT22;20032;52.436;13.312;2022-07-25T03:46:20;19.70;92.80
33699;DHT22;20032;52.436;13.312;2022-07-25T03:48:45;19.70;92.80
33699;DHT22;20032;52.436;13.312;2022-07-25T03:51:11;19.80;92.40
33699;DHT22;20032;52.436;13.312;2022-07-25T03:53:36;19.80;92.40
33699;DHT22;20032;52.436;13.312;2022-07-25T03:56:22;19.80;92.50
33699;DHT22;20032;52.436;13.312;2022-07-25T03:58:48;19.80;92.50
33699;DHT22;20032;52.436;13.312;2022-07-25T04:01:13;19.80;92.50
33699;DHT22;20032;52.436;13.312;2022-07-25T04:03:39;19.80;92.30
33699;DHT22;20032;52.436;13.312;2022-07-25T04:06:04;19.80;92.20
33699;DHT22;20032;52.436;13.312;2022-07-25T04:08:30;19.80;92.20
33699;DHT22;20032;52.436;13.312;2022-07-25T04:10:55;19.80;92.30
33699;DHT22;20032;52.436;13.312;2022-07-25T04:13:21;19.80;92.70
33699;DHT22;20032;52.436;13.312;2022-07-25T04:15:46;19.80;92.90
33699;DHT22;20032;52.436;13.312;2022-07-25T04:18:12;19.80;92.60
33699;DHT22;20032;52.436;13.312;2022-07-25T04:20:37;19.90;92.70
33699;DHT22;20032;52.436;13.312;2022-07-25T04:23:03;19.80;92.90
33699;DHT22;20032;52.436;13.312;2022-07-25T04:25:28;19.90;92.40
33699;DHT22;20032;52.436;13.312;2022-07-25T04:27:55;19.90;92.40
33699;DHT22;20032;52.436;13.312;2022-07-25T04:30:20;20.00;92.50
33699;DHT22;20032;52.436;13.312;2022-07-25T04:32:46;20.00;92.80
33699;DHT22;20032;52.436;13.312;2022-07-25T04:35:11;20.10;92.00
33699;DHT22;20032;52.436;13.312;2022-07-25T04:37:37;20.10;92.00
33699;DHT22;20032;52.436;13.312;2022-07-25T04:40:04;20.20;92.40
33699;DHT22;20032;52.436;13.312;2022-07-25T04:42:29;20.20;92.00
33699;DHT22;20032;52.436;13.312;2022-07-25T04:44:55;20.20;91.90
33699;DHT22;20032;52.436;13.312;2022-07-25T04:47:20;20.30;92.50
33699;DHT22;20032;52.436;13.312;2022-07-25T04:49:46;20.30;92.60
33699;DHT22;20032;52.436;13.312;2022-07-25T04:52:11;20.30;92.60
33699;DHT22;20032;52.436;13.312;2022-07-25T04:54:37;20.30;92.20
33699;DHT22;20032;52.436;13.312;2022-07-25T04:57:02;20.50;92.10
33699;DHT22;20032;52.436;13.312;2022-07-25T04:59:29;20.60;91.70
33699;DHT22;20032;52.436;13.312;2022-07-25T05:01:55;20.70;91.70
33699;DHT22;20032;52.436;13.312;2022-07-25T05:04:21;20.80;91.80
33699;DHT22;20032;52.436;13.312;2022-07-25T05:06:46;20.90;91.60
33699;DHT22;20032;52.436;13.312;2022-07-25T05:09:12;20.80;91.30
33699;DHT22;20032;52.436;13.312;2022-07-25T05:11:37;20.90;91.80
33699;DHT22;20032;52.436;13.312;2022-07-25T05:14:03;21.00;91.70
33699;DHT22;20032;52.436;13.312;2022-07-25T05:16:28;20.90;91.30
33699;DHT22;20032;52.436;13.312;2022-07-25T05:18:54;21.00;91.10
33699;DHT22;20032;52.436;13.312;2022-07-25T05:21:19;21.00;91.50
33699;DHT22;20032;52.436;13.312;2022-07-25T05:23:45;21.10;91.00
33699;DHT22;20032;52.436;13.312;2022-07-25T05:26:10;21.20;91.10
33699;DHT22;20032;52.436;13.312;2022-07-25T05:28:36;21.30;90.90
33699;DHT22;20032;52.436;13.312;2022-07-25T05:31:02;21.30;90.70
33699;DHT22;20032;52.436;13.312;2022-07-25T05:33:27;21.40;90.90
33699;DHT22;20032;52.436;13.312;2022-07-25T05:35:53;21.40;90.70
33699;DHT22;20032;52.436;13.312;2022-07-25T05:38:18;21.40;90.80
33699;DHT22;20032;52.436;13.312;2022-07-25T05:40:44;21.40;90.70
33699;DHT22;20032;52.436;13.312;2022-07-25T05:43:10;21.60;90.60
33699;DHT22;20032;52.436;13.312;2022-07-25T05:45:35;21.60;90.70
33699;DHT22;20032;52.436;13.312;2022-07-25T05:48:01;21.70;91.00
33699;DHT22;20032;52.436;13.312;2022-07-25T05:50:26;21.80;90.70
33699;DHT22;20032;52.436;13.312;2022-07-25T05:52:52;21.80;90.60
33699;DHT22;20032;52.436;13.312;2022-07-25T05:55:17;21.90;90.70
33699;DHT22;20032;52.436;13.312;2022-07-25T05:57:43;22.00;90.70
33699;DHT22;20032;52.436;13.312;2022-07-25T06:00:09;22.00;90.70
33699;DHT22;20032;52.436;13.312;2022-07-25T06:02:35;22.00;90.90
33699;DHT22;20032;52.436;13.312;2022-07-25T06:05:00;21.90;91.00
33699;DHT22;20032;52.436;13.312;2022-07-25T06:07:25;22.00;91.30
33699;DHT22;20032;52.436;13.312;2022-07-25T06:09:51;22.10;90.90
33699;DHT22;20032;52.436;13.312;2022-07-25T06:12:16;22.10;91.10
33699;DHT22;20032;52.436;13.312;2022-07-25T06:14:42;22.10;91.20
33699;DHT22;20032;52.436;13.312;2022-07-25T06:17:07;22.20;91.20
33699;DHT22;20032;52.436;13.312;2022-07-25T06:19:33;22.30;91.10
33699;DHT22;20032;52.436;13.312;2022-07-25T06:21:58;22.30;91.20
33699;DHT22;20032;52.436;13.312;2022-07-25T06:24:24;22.40;91.10
33699;DHT22;20032;52.436;13.312;2022-07-25T06:26:49;22.50;91.00
33699;DHT22;20032;52.436;13.312;2022-07-25T06:29:14;22.70;91.00
33699;DHT22;20032;52.436;13.312;2022-07-25T06:31:40;22.80;91.20
33699;DHT22;20032;52.436;13.312;2022-07-25T06:34:05;23.00;90.70
33699;DHT22;20032;52.436;13.312;2022-07-25T06:36:31;23.00;90.30
33699;DHT22;20032;52.436;13.312;2022-07-25T06:38:56;23.10;90.40
33699;DHT22;20032;52.436;13.312;2022-07-25T06:41:22;23.20;90.20
33699;DHT22;20032;52.436;13.312;2022-07-25T06:43:47;23.30;90.20
33699;DHT22;20032;52.436;13.312;2022-07-25T06:46:13;23.30;90.20
33699;DHT22;20032;52.436;13.312;2022-07-25T06:48:38;23.40;90.40
33699;DHT22;20032;52.436;13.312;2022-07-25T06:51:05;23.50;90.20
33699;DHT22;20032;52.436;13.312;2022-07-25T06:53:30;23.60;90.50
33699;DHT22;20032;52.436;13.312;2022-07-25T06:55:56;23.70;90.20
33699;DHT22;20032;52.436;13.312;2022-07-25T06:58:21;23.80;89.70
33699;DHT22;20032;52.436;13.312;2022-07-25T07:00:47;23.90;90.00
33699;DHT22;20032;52.436;13.312;2022-07-25T07:03:12;24.00;90.00
33699;DHT22;20032;52.436;13.312;2022-07-25T07:05:38;24.10;89.90
33699;DHT22;20032;52.436;13.312;2022-07-25T07:08:04;24.20;88.90
33699;DHT22;20032;52.436;13.312;2022-07-25T07:10:30;24.30;89.40
33699;DHT22;20032;52.436;13.312;2022-07-25T07:13:08;24.30;89.30
33699;DHT22;20032;52.436;13.312;2022-07-25T07:15:36;24.40;89.00
33699;DHT22;20032;52.436;13.312;2022-07-25T07:18:02;24.50;89.50
33699;DHT22;20032;52.436;13.312;2022-07-25T07:20:27;24.50;89.00
33699;DHT22;20032;52.436;13.312;2022-07-25T07:22:53;24.70;89.10
33699;DHT22;20032;52.436;13.312;2022-07-25T07:25:19;24.80;89.30
33699;DHT22;20032;52.436;13.312;2022-07-25T07:27:46;24.90;88.60
33699;DHT22;20032;52.436;13.312;2022-07-25T07:30:12;24.90;88.20
33699;DHT22;20032;52.436;13.312;2022-07-25T07:32:40;25.10;88.10
33699;DHT22;20032;52.436;13.312;2022-07-25T07:35:06;25.20;88.10
33699;DHT22;20032;52.436;13.312;2022-07-25T07:37:31;25.40;87.60
33699;DHT22;20032;52.436;13.312;2022-07-25T07:39:57;25.50;87.30
33699;DHT22;20032;52.436;13.312;2022-07-25T07:42:22;25.50;87.70
33699;DHT22;20032;52.436;13.312;2022-07-25T07:44:48;25.70;87.10
33699;DHT22;20032;52.436;13.312;2022-07-25T07:47:13;25.80;87.50
33699;DHT22;20032;52.436;13.312;2022-07-25T07:49:39;25.90;87.40
33699;DHT22;20032;52.436;13.312;2022-07-25T07:52:04;25.90;86.80
33699;DHT22;20032;52.436;13.312;2022-07-25T07:54:30;26.10;86.60
33699;DHT22;20032;52.436;13.312;2022-07-25T07:57:15;26.20;86.20
33699;DHT22;20032;52.436;13.312;2022-07-25T07:59:41;26.30;85.80
33699;DHT22;20032;52.436;13.312;2022-07-25T08:02:06;26.40;86.20
33699;DHT22;20032;52.436;13.312;2022-07-25T08:04:32;26.60;85.90
33699;DHT22;20032;52.436;13.312;2022-07-25T08:06:57;26.70;85.80
33699;DHT22;20032;52.436;13.312;2022-07-25T08:09:23;26.90;85.50
33699;DHT22;20032;52.436;13.312;2022-07-25T08:11:50;27.00;84.80
33699;DHT22;20032;52.436;13.312;2022-07-25T08:14:16;27.10;84.50
33699;DHT22;20032;52.436;13.312;2022-07-25T08:16:41;27.20;85.10
33699;DHT22;20032;52.436;13.312;2022-07-25T08:19:07;27.30;84.40
33699;DHT22;20032;52.436;13.312;2022-07-25T08:21:32;27.40;83.90
33699;DHT22;20032;52.436;13.312;2022-07-25T08:23:58;27.40;84.30
33699;DHT22;20032;52.436;13.312;2022-07-25T08:26:24;27.60;83.80
33699;DHT22;20032;52.436;13.312;2022-07-25T08:28:52;27.60;83.60
33699;DHT22;20032;52.436;13.312;2022-07-25T08:31:18;27.60;83.50
33699;DHT22;20032;52.436;13.312;2022-07-25T08:33:43;27.80;83.70
33699;DHT22;20032;52.436;13.312;2022-07-25T08:36:09;27.90;83.30
33699;DHT22;20032;52.436;13.312;2022-07-25T08:38:35;28.00;83.00
33699;DHT22;20032;52.436;13.312;2022-07-25T08:41:02;28.00;83.20
33699;DHT22;20032;52.436;13.312;2022-07-25T08:43:28;28.10;82.70
33699;DHT22;20032;52.436;13.312;2022-07-25T08:45:59;28.20;82.90
33699;DHT22;20032;52.436;13.312;2022-07-25T08:48:25;28.40;83.10
33699;DHT22;20032;52.436;13.312;2022-07-25T08:50:53;28.50;82.90
33699;DHT22;20032;52.436;13.312;2022-07-25T08:53:20;28.60;81.90
33699;DHT22;20032;52.436;13.312;2022-07-25T08:55:46;28.80;82.20
33699;DHT22;20032;52.436;13.312;2022-07-25T08:58:13;28.90;81.60
33699;DHT22;20032;52.436;13.312;2022-07-25T09:00:39;29.00;81.00
33699;DHT22;20032;52.436;13.312;2022-07-25T09:03:05;29.00;81.10
33699;DHT22;20032;52.436;13.312;2022-07-25T09:05:32;29.10;81.90
33699;DHT22;20032;52.436;13.312;2022-07-25T09:08:06;29.20;81.30
33699;DHT22;20032;52.436;13.312;2022-07-25T09:10:32;29.30;80.80
33699;DHT22;20032;52.436;13.312;2022-07-25T09:13:00;29.40;80.70
33699;DHT22;20032;52.436;13.312;2022-07-25T09:15:32;29.50;80.90
33699;DHT22;20032;52.436;13.312;2022-07-25T09:18:00;29.60;80.60
33699;DHT22;20032;52.436;13.312;2022-07-25T09:20:46;29.60;79.90
33699;DHT22;20032;52.436;13.312;2022-07-25T09:23:14;29.70;80.40
33699;DHT22;20032;52.436;13.312;2022-07-25T09:25:41;29.90;80.00
33699;DHT22;20032;52.436;13.312;2022-07-25T09:28:15;30.10;80.00
33699;DHT22;20032;52.436;13.312;2022-07-25T09:30:58;30.10;78.60
33699;DHT22;20032;52.436;13.312;2022-07-25T09:33:25;30.20;78.50
33699;DHT22;20032;52.436;13.312;2022-07-25T09:35:52;30.30;78.80
33699;DHT22;20032;52.436;13.312;2022-07-25T09:38:19;30.30;78.80
33699;DHT22;20032;52.436;13.312;2022-07-25T09:40:57;30.50;77.30
33699;DHT22;20032;52.436;13.312;2022-07-25T09:43:34;30.60;76.80
33699;DHT22;20032;52.436;13.312;2022-07-25T09:46:00;30.70;76.40
33699;DHT22;20032;52.436;13.312;2022-07-25T09:48:26;30.90;76.50
33699;DHT22;20032;52.436;13.312;2022-07-25T09:50:52;31.00;76.30
33699;DHT22;20032;52.436;13.312;2022-07-25T09:53:19;31.10;76.80
33699;DHT22;20032;52.436;13.312;2022-07-25T09:55:45;31.20;75.60
33699;DHT22;20032;52.436;13.312;2022-07-25T09:58:11;31.30;74.80
33699;DHT22;20032;52.436;13.312;2022-07-25T10:00:39;31.40;74.60
33699;DHT22;20032;52.436;13.312;2022-07-25T10:03:28;31.50;74.30
33699;DHT22;20032;52.436;13.312;2022-07-25T10:06:06;31.70;74.30
33699;DHT22;20032;52.436;13.312;2022-07-25T10:08:37;31.70;73.50
33699;DHT22;20032;52.436;13.312;2022-07-25T10:11:03;32.00;74.20
33699;DHT22;20032;52.436;13.312;2022-07-25T10:13:34;32.10;72.60
33699;DHT22;20032;52.436;13.312;2022-07-25T10:16:00;32.30;71.60
33699;DHT22;20032;52.436;13.312;2022-07-25T10:18:27;32.30;71.70
33699;DHT22;20032;52.436;13.312;2022-07-25T10:20:55;32.40;72.00
33699;DHT22;20032;52.436;13.312;2022-07-25T10:23:31;32.60;71.90
33699;DHT22;20032;52.436;13.312;2022-07-25T10:28:46;32.80;70.50
33699;DHT22;20032;52.436;13.312;2022-07-25T10:33:51;33.30;68.60
33699;DHT22;20032;52.436;13.312;2022-07-25T10:36:18;33.50;68.50
33699;DHT22;20032;52.436;13.312;2022-07-25T10:38:44;33.50;68.30
33699;DHT22;20032;52.436;13.312;2022-07-25T10:41:12;33.30;69.00
33699;DHT22;20032;52.436;13.312;2022-07-25T10:43:39;33.30;68.80
33699;DHT22;20032;52.436;13.312;2022-07-25T10:46:26;33.50;69.40
33699;DHT22;20032;52.436;13.312;2022-07-25T10:49:02;33.40;68.80
33699;DHT22;20032;52.436;13.312;2022-07-25T10:51:31;33.70;68.80
33699;DHT22;20032;52.436;13.312;2022-07-25T10:53:57;33.80;67.10
33699;DHT22;20032;52.436;13.312;2022-07-25T10:56:26;33.40;67.10
33699;DHT22;20032;52.436;13.312;2022-07-25T10:58:57;33.20;67.40
33699;DHT22;20032;52.436;13.312;2022-07-25T11:01:29;33.30;67.30
33699;DHT22;20032;52.436;13.312;2022-07-25T11:03:57;33.50;67.20
33699;DHT22;20032;52.436;13.312;2022-07-25T11:06:33;33.80;65.80
33699;DHT22;20032;52.436;13.312;2022-07-25T11:09:00;33.90;65.40
33699;DHT22;20032;52.436;13.312;2022-07-25T11:11:37;34.30;65.00
33699;DHT22;20032;52.436;13.312;2022-07-25T11:14:04;34.30;65.20
33699;DHT22;20032;52.436;13.312;2022-07-25T11:16:30;34.40;64.00
33699;DHT22;20032;52.436;13.312;2022-07-25T11:18:55;34.60;62.90
33699;DHT22;20032;52.436;13.312;2022-07-25T11:21:21;34.90;62.40
33699;DHT22;20032;52.436;13.312;2022-07-25T11:23:54;35.20;61.50
33699;DHT22;20032;52.436;13.312;2022-07-25T11:26:19;35.50;60.20
33699;DHT22;20032;52.436;13.312;2022-07-25T11:28:46;35.40;60.00
33699;DHT22;20032;52.436;13.312;2022-07-25T11:31:14;35.10;60.80
33699;DHT22;20032;52.436;13.312;2022-07-25T11:33:42;35.00;62.10
33699;DHT22;20032;52.436;13.312;2022-07-25T11:36:09;35.20;61.40
33699;DHT22;20032;52.436;13.312;2022-07-25T11:38:36;35.40;59.60
33699;DHT22;20032;52.436;13.312;2022-07-25T11:41:02;35.60;58.50
33699;DHT22;20032;52.436;13.312;2022-07-25T11:43:27;36.00;58.30
33699;DHT22;20032;52.436;13.312;2022-07-25T11:46:08;36.40;58.10
33699;DHT22;20032;52.436;13.312;2022-07-25T11:48:36;36.80;57.50
33699;DHT22;20032;52.436;13.312;2022-07-25T11:51:13;36.80;57.80
33699;DHT22;20032;52.436;13.312;2022-07-25T11:53:41;36.70;57.20
33699;DHT22;20032;52.436;13.312;2022-07-25T11:56:17;36.80;57.50
33699;DHT22;20032;52.436;13.312;2022-07-25T11:58:48;37.00;56.90
33699;DHT22;20032;52.436;13.312;2022-07-25T12:01:15;36.70;58.00
33699;DHT22;20032;52.436;13.312;2022-07-25T12:03:41;36.50;57.20
33699;DHT22;20032;52.436;13.312;2022-07-25T12:06:09;36.50;57.40
33699;DHT22;20032;52.436;13.312;2022-07-25T12:08:38;36.70;57.40
33699;DHT22;20032;52.436;13.312;2022-07-25T12:11:15;37.50;56.40
33699;DHT22;20032;52.436;13.312;2022-07-25T12:13:41;38.00;55.80
33699;DHT22;20032;52.436;13.312;2022-07-25T12:16:07;38.20;55.50
33699;DHT22;20032;52.436;13.312;2022-07-25T12:18:32;38.30;53.00
33699;DHT22;20032;52.436;13.312;2022-07-25T12:20:58;38.40;53.80
33699;DHT22;20032;52.436;13.312;2022-07-25T12:23:23;38.10;54.10
33699;DHT22;20032;52.436;13.312;2022-07-25T12:25:49;38.30;54.40
33699;DHT22;20032;52.436;13.312;2022-07-25T12:28:15;38.80;53.70
33699;DHT22;20032;52.436;13.312;2022-07-25T12:30:42;39.30;53.30
33699;DHT22;20032;52.436;13.312;2022-07-25T12:33:09;39.60;52.50
33699;DHT22;20032;52.436;13.312;2022-07-25T12:35:35;39.20;52.30
33699;DHT22;20032;52.436;13.312;2022-07-25T12:38:01;38.60;52.00
33699;DHT22;20032;52.436;13.312;2022-07-25T12:40:27;38.10;52.70
33699;DHT22;20032;52.436;13.312;2022-07-25T12:42:53;37.50;54.20
33699;DHT22;20032;52.436;13.312;2022-07-25T12:45:18;37.80;54.10
33699;DHT22;20032;52.436;13.312;2022-07-25T12:47:46;38.30;53.40
33699;DHT22;20032;52.436;13.312;2022-07-25T12:50:13;38.70;52.60
33699;DHT22;20032;52.436;13.312;2022-07-25T12:52:38;38.20;52.30
33699;DHT22;20032;52.436;13.312;2022-07-25T12:55:05;38.40;52.80
33699;DHT22;20032;52.436;13.312;2022-07-25T12:57:31;38.70;52.30
33699;DHT22;20032;52.436;13.312;2022-07-25T12:59:57;38.60;52.30
33699;DHT22;20032;52.436;13.312;2022-07-25T13:02:23;38.60;52.30
33699;DHT22;20032;52.436;13.312;2022-07-25T13:04:48;38.80;51.90
33699;DHT22;20032;52.436;13.312;2022-07-25T13:07:14;39.30;52.10
33699;DHT22;20032;52.436;13.312;2022-07-25T13:09:40;39.70;51.70
33699;DHT22;20032;52.436;13.312;2022-07-25T13:12:06;39.60;51.60
33699;DHT22;20032;52.436;13.312;2022-07-25T13:14:32;39.40;50.90
33699;DHT22;20032;52.436;13.312;2022-07-25T13:16:57;39.50;50.50
33699;DHT22;20032;52.436;13.312;2022-07-25T13:19:23;39.10;50.70
33699;DHT22;20032;52.436;13.312;2022-07-25T13:21:48;38.70;51.30
33699;DHT22;20032;52.436;13.312;2022-07-25T13:24:14;38.60;51.60
33699;DHT22;20032;52.436;13.312;2022-07-25T13:26:39;38.20;52.30
33699;DHT22;20032;52.436;13.312;2022-07-25T13:29:05;37.60;52.30
33699;DHT22;20032;52.436;13.312;2022-07-25T13:31:36;37.30;52.50
33699;DHT22;20032;52.436;13.312;2022-07-25T13:34:02;36.90;53.20
33699;DHT22;20032;52.436;13.312;2022-07-25T13:36:27;36.80;53.10
33699;DHT22;20032;52.436;13.312;2022-07-25T13:38:53;36.80;53.50
33699;DHT22;20032;52.436;13.312;2022-07-25T13:41:18;36.50;53.70
33699;DHT22;20032;52.436;13.312;2022-07-25T13:43:44;36.20;54.20
33699;DHT22;20032;52.436;13.312;2022-07-25T13:46:10;35.90;54.50
33699;DHT22;20032;52.436;13.312;2022-07-25T13:48:36;36.40;54.30
33699;DHT22;20032;52.436;13.312;2022-07-25T13:51:01;37.10;54.10
33699;DHT22;20032;52.436;13.312;2022-07-25T13:53:27;37.60;53.10
33699;DHT22;20032;52.436;13.312;2022-07-25T13:55:52;38.40;51.80
33699;DHT22;20032;52.436;13.312;2022-07-25T13:58:18;38.90;51.20
33699;DHT22;20032;52.436;13.312;2022-07-25T14:00:44;39.80;50.30
33699;DHT22;20032;52.436;13.312;2022-07-25T14:03:09;40.20;50.40
33699;DHT22;20032;52.436;13.312;2022-07-25T14:05:37;39.40;51.20
33699;DHT22;20032;52.436;13.312;2022-07-25T14:08:03;39.20;50.50
33699;DHT22;20032;52.436;13.312;2022-07-25T14:10:29;39.60;50.30
33699;DHT22;20032;52.436;13.312;2022-07-25T14:12:55;38.60;50.70
33699;DHT22;20032;52.436;13.312;2022-07-25T14:15:20;38.40;50.40
33699;DHT22;20032;52.436;13.312;2022-07-25T14:17:46;38.30;50.80
33699;DHT22;20032;52.436;13.312;2022-07-25T14:20:11;39.10;50.60
33699;DHT22;20032;52.436;13.312;2022-07-25T14:22:38;39.90;49.90
33699;DHT22;20032;52.436;13.312;2022-07-25T14:25:05;40.40;49.30
33699;DHT22;20032;52.436;13.312;2022-07-25T14:27:32;40.50;48.30
33699;DHT22;20032;52.436;13.312;2022-07-25T14:29:58;40.70;48.30
33699;DHT22;20032;52.436;13.312;2022-07-25T14:32:23;40.50;47.90
33699;DHT22;20032;52.436;13.312;2022-07-25T14:34:49;40.50;48.30
33699;DHT22;20032;52.436;13.312;2022-07-25T14:37:17;40.80;48.20
33699;DHT22;20032;52.436;13.312;2022-07-25T14:39:43;40.50;47.90
33699;DHT22;20032;52.436;13.312;2022-07-25T14:42:09;39.60;48.10
33699;DHT22;20032;52.436;13.312;2022-07-25T14:44:35;38.90;48.90
33699;DHT22;20032;52.436;13.312;2022-07-25T14:47:01;38.60;49.70
33699;DHT22;20032;52.436;13.312;2022-07-25T14:49:27;38.40;49.30
33699;DHT22;20032;52.436;13.312;2022-07-25T14:51:53;37.80;49.50
33699;DHT22;20032;52.436;13.312;2022-07-25T14:54:18;37.10;50.50
33699;DHT22;20032;52.436;13.312;2022-07-25T14:56:44;36.80;51.20
33699;DHT22;20032;52.436;13.312;2022-07-25T14:59:10;36.40;50.60
33699;DHT22;20032;52.436;13.312;2022-07-25T15:01:36;36.00;51.20
33699;DHT22;20032;52.436;13.312;2022-07-25T15:04:02;35.80;51.80
33699;DHT22;20032;52.436;13.312;2022-07-25T15:06:28;35.60;52.40
33699;DHT22;20032;52.436;13.312;2022-07-25T15:08:53;35.50;52.50
33699;DHT22;20032;52.436;13.312;2022-07-25T15:11:20;35.20;53.10
33699;DHT22;20032;52.436;13.312;2022-07-25T15:13:46;35.10;53.20
33699;DHT22;20032;52.436;13.312;2022-07-25T15:16:13;35.10;53.20